createdAt,value
2022-08-19T00:01:26.355Z,19.69
2022-08-19T00:04:01.205Z,19.66
2022-08-19T00:06:29.504Z,19.66
2022-08-19T00:08:57.460Z,19.59
2022-08-19T00:11:25.492Z,19.64
2022-08-19T00:13:53.193Z,19.62
2022-08-19T00:16:22.787Z,19.67
2022-08-19T00:18:53.060Z,19.62
2022-08-19T00:21:19.469Z,19.53
2022-08-19T00:23:45.946Z,19.51
2022-08-19T00:26:12.524Z,19.55
2022-08-19T00:28:39.302Z,19.58
2022-08-19T00:31:07.669Z,19.50
2022-08-19T00:33:34.518Z,19.49
2022-08-19T00:36:02.172Z,19.53
2022-08-19T00:38:34.950Z,19.48
2022-08-19T00:41:04.097Z,19.42
2022-08-19T00:43:30.575Z,19.44
2022-08-19T00:45:57.028Z,19.31
2022-08-19T00:48:24.415Z,19.39
2022-08-19T00:50:54.020Z,19.30
2022-08-19T00:53:23.860Z,19.38
2022-08-19T00:55:53.544Z,19.38
2022-08-19T00:58:23.136Z,19.32
2022-08-19T01:00:49.677Z,19.30
2022-08-19T01:03:19.393Z,19.25
2022-08-19T01:05:48.187Z,19.20
2022-08-19T01:08:16.420Z,19.23
2022-08-19T01:10:49.533Z,19.25
2022-08-19T01:13:18.201Z,19.21
2022-08-19T01:15:47.884Z,19.22
2022-08-19T01:18:17.656Z,19.17
2022-08-19T01:20:44.462Z,19.25
2022-08-19T01:23:11.774Z,19.21
2022-08-19T01:26:04.678Z,19.21
2022-08-19T01:28:40.072Z,19.08
2022-08-19T01:31:09.480Z,19.08
2022-08-19T01:33:35.971Z,19.08
2022-08-19T01:36:13.677Z,19.05
2022-08-19T01:38:44.271Z,19.03
2022-08-19T01:41:12.848Z,18.99
2022-08-19T01:44:09.985Z,19.04
2022-08-19T01:46:26.165Z,19.00
2022-08-19T01:48:52.624Z,18.99
2022-08-19T01:51:19.161Z,19.01
2022-08-19T01:53:49.422Z,18.90
2022-08-19T01:56:16.213Z,18.87
2022-08-19T01:58:50.330Z,18.81
2022-08-19T02:01:16.938Z,18.66
2022-08-19T02:03:43.703Z,18.64
2022-08-19T02:06:10.296Z,18.73
2022-08-19T02:08:38.528Z,18.86
2022-08-19T02:11:06.940Z,18.87
2022-08-19T02:13:35.234Z,18.81
2022-08-19T02:16:01.639Z,18.87
2022-08-19T02:18:30.986Z,18.93
2022-08-19T02:20:57.382Z,18.92
2022-08-19T02:23:23.987Z,18.85
2022-08-19T02:25:52.971Z,18.85
2022-08-19T02:28:19.416Z,18.85
2022-08-19T02:30:47.406Z,18.81
2022-08-19T02:33:13.930Z,18.85
2022-08-19T02:35:44.791Z,18.61
2022-08-19T02:38:26.533Z,18.67
2022-08-19T02:40:59.566Z,18.59
2022-08-19T02:43:27.483Z,18.64
2022-08-19T02:45:54.496Z,18.69
2022-08-19T02:48:22.781Z,18.60
2022-08-19T02:50:56.068Z,18.72
2022-08-19T02:53:24.111Z,18.59
2022-08-19T02:55:51.734Z,18.54
2022-08-19T02:58:19.485Z,18.53
2022-08-19T03:00:50.135Z,18.51
2022-08-19T03:03:17.152Z,18.53
2022-08-19T03:05:47.938Z,18.55
2022-08-19T03:08:22.756Z,18.51
2022-08-19T03:10:49.243Z,18.54
2022-08-19T03:13:18.066Z,18.52
2022-08-19T03:15:47.474Z,18.56
2022-08-19T03:18:15.456Z,18.55
2022-08-19T03:20:48.106Z,18.58
2022-08-19T03:23:16.180Z,18.58
2022-08-19T03:25:46.097Z,18.55
2022-08-19T03:28:14.519Z,18.56
2022-08-19T03:30:43.546Z,18.48
2022-08-19T03:33:18.022Z,18.52
2022-08-19T03:35:46.190Z,18.53
2022-08-19T03:38:12.612Z,18.57
2022-08-19T03:40:39.003Z,18.53
2022-08-19T03:43:06.413Z,18.52
2022-08-19T03:45:32.820Z,18.45
2022-08-19T03:47:59.243Z,18.49
2022-08-19T03:50:26.117Z,18.49
2022-08-19T03:52:53.133Z,18.47
2022-08-19T03:55:19.972Z,18.49
2022-08-19T03:57:46.849Z,18.43
2022-08-19T04:00:14.351Z,18.37
2022-08-19T04:02:42.880Z,18.33
2022-08-19T04:05:24.742Z,18.33
2022-08-19T04:07:54.326Z,18.39
2022-08-19T04:10:20.729Z,18.32
2022-08-19T04:12:47.434Z,18.14
2022-08-19T04:15:16.316Z,18.29
2022-08-19T04:17:42.727Z,18.26
2022-08-19T04:20:09.428Z,18.14
2022-08-19T04:22:35.845Z,18.22
2022-08-19T04:25:02.659Z,18.27
2022-08-19T04:27:29.293Z,18.19
2022-08-19T04:29:56.109Z,18.20
2022-08-19T04:32:23.631Z,18.24
2022-08-19T04:35:01.589Z,18.23
2022-08-19T04:37:36.772Z,18.07
2022-08-19T04:40:24.566Z,18.09
2022-08-19T04:42:51.004Z,18.26
2022-08-19T04:45:17.708Z,18.29
2022-08-19T04:47:47.552Z,18.23
2022-08-19T04:50:24.790Z,18.31
2022-08-19T04:52:53.441Z,18.30
2022-08-19T04:55:20.102Z,18.37
2022-08-19T04:57:46.807Z,18.24
2022-08-19T05:00:13.821Z,18.18
2022-08-19T05:02:40.341Z,18.17
2022-08-19T05:05:07.515Z,18.24
2022-08-19T05:07:34.927Z,18.22
2022-08-19T05:10:01.669Z,18.30
2022-08-19T05:12:29.729Z,18.31
2022-08-19T05:14:58.338Z,18.29
2022-08-19T05:17:28.746Z,18.26
2022-08-19T05:20:15.294Z,18.22
2022-08-19T05:22:44.007Z,18.35
2022-08-19T05:25:14.990Z,18.44
2022-08-19T05:27:43.038Z,18.44
2022-08-19T05:30:11.430Z,18.58
2022-08-19T05:32:38.764Z,18.71
2022-08-19T05:35:06.319Z,18.53
2022-08-19T05:37:32.853Z,18.61
2022-08-19T05:39:59.406Z,18.64
2022-08-19T05:42:26.441Z,18.67
2022-08-19T05:44:52.976Z,18.84
2022-08-19T05:47:21.103Z,18.85
2022-08-19T05:49:48.722Z,18.85
2022-08-19T05:52:18.552Z,18.99
2022-08-19T05:54:51.074Z,18.87
2022-08-19T05:57:19.312Z,18.74
2022-08-19T05:59:48.623Z,18.45
2022-08-19T06:02:15.650Z,18.51
2022-08-19T06:04:43.751Z,18.33
2022-08-19T06:07:11.873Z,18.56
2022-08-19T06:09:40.215Z,18.71
2022-08-19T06:12:07.374Z,18.74
2022-08-19T06:14:40.358Z,18.81
2022-08-19T06:17:08.526Z,18.72
2022-08-19T06:19:34.983Z,18.90
2022-08-19T06:22:07.566Z,18.88
2022-08-19T06:24:34.031Z,18.87
2022-08-19T06:27:01.776Z,19.20
2022-08-19T06:29:30.243Z,19.31
2022-08-19T06:31:59.066Z,19.32
2022-08-19T06:34:28.302Z,19.31
2022-08-19T06:36:55.894Z,19.22
2022-08-19T06:39:28.513Z,19.38
2022-08-19T06:41:59.187Z,19.37
2022-08-19T06:44:28.032Z,19.35
2022-08-19T06:46:56.233Z,19.45
2022-08-19T06:49:23.926Z,19.49
2022-08-19T06:51:51.821Z,19.61
2022-08-19T06:54:20.096Z,19.64
2022-08-19T06:56:47.611Z,19.51
2022-08-19T06:59:18.695Z,19.47
2022-08-19T07:01:51.216Z,19.67
2022-08-19T07:04:21.809Z,19.66
2022-08-19T07:06:54.984Z,19.50
2022-08-19T07:09:22.308Z,19.86
2022-08-19T07:11:51.211Z,19.99
2022-08-19T07:14:21.424Z,20.16
2022-08-19T07:16:50.263Z,20.03
2022-08-19T07:19:19.325Z,20.22
2022-08-19T07:21:50.501Z,20.29
2022-08-19T07:24:17.931Z,20.14
2022-08-19T07:26:45.586Z,20.09
2022-08-19T07:29:13.635Z,20.42
2022-08-19T07:31:40.616Z,20.46
2022-08-19T07:34:12.464Z,20.70
2022-08-19T07:36:41.603Z,21.52
2022-08-19T07:39:18.480Z,21.52
2022-08-19T07:41:45.882Z,21.28
2022-08-19T07:44:13.384Z,20.98
2022-08-19T07:46:48.125Z,20.81
2022-08-19T07:49:20.028Z,21.01
2022-08-19T07:51:49.125Z,20.90
2022-08-19T07:54:16.017Z,21.27
2022-08-19T07:56:42.605Z,21.40
2022-08-19T07:59:10.157Z,21.15
2022-08-19T08:01:41.601Z,21.19
2022-08-19T08:04:27.259Z,22.40
2022-08-19T08:07:13.655Z,22.40
2022-08-19T08:09:44.488Z,22.54
2022-08-19T08:12:34.208Z,22.67
2022-08-19T08:15:08.140Z,22.75
2022-08-19T08:17:49.409Z,23.08
2022-08-19T08:20:19.290Z,23.35
2022-08-19T08:23:06.449Z,23.21
2022-08-19T08:25:34.360Z,23.42
2022-08-19T08:28:02.595Z,22.96
2022-08-19T08:30:31.348Z,24.28
2022-08-19T08:32:59.599Z,24.37
2022-08-19T08:35:26.059Z,23.90
2022-08-19T08:37:55.320Z,23.28
2022-08-19T08:40:29.167Z,23.42
2022-08-19T08:43:22.205Z,23.53
2022-08-19T08:46:14.565Z,24.68
2022-08-19T08:49:02.457Z,22.95
2022-08-19T08:51:35.380Z,24.35
2022-08-19T08:54:07.614Z,24.89
2022-08-19T08:56:38.472Z,23.41
2022-08-19T08:59:21.723Z,23.55
2022-08-19T09:01:49.432Z,23.23
2022-08-19T09:04:16.389Z,24.12
2022-08-19T09:06:59.046Z,23.54
2022-08-19T09:09:39.368Z,24.72
2022-08-19T09:12:35.164Z,24.97
2022-08-19T09:15:09.103Z,24.93
2022-08-19T09:17:36.378Z,26.23
2022-08-19T09:20:11.812Z,25.31
2022-08-19T09:22:41.855Z,25.73
2022-08-19T09:25:10.397Z,24.54
2022-08-19T09:27:42.820Z,23.71
2022-08-19T09:30:23.606Z,25.45
2022-08-19T09:32:53.569Z,25.80
2022-08-19T09:35:25.737Z,25.02
2022-08-19T09:37:57.664Z,26.02
2022-08-19T09:40:27.826Z,27.18
2022-08-19T09:42:58.126Z,26.29
2022-08-19T09:45:24.863Z,24.83
2022-08-19T09:47:54.267Z,24.80
2022-08-19T09:50:23.099Z,25.78
2022-08-19T09:52:53.996Z,26.25
2022-08-19T09:55:23.494Z,26.24
2022-08-19T09:57:50.668Z,27.33
2022-08-19T10:00:17.262Z,27.89
2022-08-19T10:02:45.641Z,26.38
2022-08-19T10:05:42.401Z,25.06
2022-08-19T10:08:13.713Z,24.58
2022-08-19T10:10:46.645Z,24.44
2022-08-19T10:13:16.645Z,24.69
2022-08-19T10:15:47.082Z,26.78
2022-08-19T10:18:14.477Z,27.12
2022-08-19T10:20:42.735Z,26.94
2022-08-19T10:23:10.213Z,27.37
2022-08-19T10:25:36.959Z,27.60
2022-08-19T10:28:10.627Z,28.12
2022-08-19T10:30:37.695Z,26.15
2022-08-19T10:33:08.511Z,26.09
2022-08-19T10:35:42.671Z,27.63
2022-08-19T10:38:31.354Z,27.52
2022-08-19T10:41:07.503Z,26.01
2022-08-19T10:43:38.140Z,25.45
2022-08-19T10:46:09.468Z,25.23
2022-08-19T10:48:42.402Z,25.52
2022-08-19T10:51:28.321Z,26.01
2022-08-19T10:53:56.628Z,25.35
2022-08-19T10:56:42.121Z,26.45
2022-08-19T10:59:08.603Z,26.98
2022-08-19T11:01:36.143Z,26.78
2022-08-19T11:04:05.559Z,26.78
2022-08-19T11:06:33.256Z,27.31
2022-08-19T11:09:00.845Z,26.84
2022-08-19T11:11:27.861Z,27.94
2022-08-19T11:13:54.704Z,27.67
2022-08-19T11:16:24.061Z,27.74
2022-08-19T11:18:53.288Z,28.51
2022-08-19T11:21:23.625Z,28.61
2022-08-19T11:23:53.649Z,27.45
2022-08-19T11:26:21.632Z,28.18
2022-08-19T11:28:48.694Z,28.21
2022-08-19T11:31:20.610Z,28.12
2022-08-19T11:33:48.216Z,27.45
2022-08-19T11:36:15.220Z,28.14
2022-08-19T11:38:41.761Z,27.34
2022-08-19T11:41:09.003Z,26.16
2022-08-19T11:43:37.675Z,27.39
2022-08-19T11:46:10.686Z,28.75
2022-08-19T11:48:37.930Z,28.81
2022-08-19T11:51:08.153Z,27.76
2022-08-19T11:53:35.356Z,28.12
2022-08-19T11:56:02.557Z,27.53
2022-08-19T11:58:30.136Z,28.35
2022-08-19T12:00:57.404Z,27.56
2022-08-19T12:03:24.679Z,26.98
2022-08-19T12:05:51.411Z,27.23
2022-08-19T12:08:19.011Z,28.20
2022-08-19T12:10:46.485Z,28.01
2022-08-19T12:13:19.341Z,27.74
2022-08-19T12:15:48.275Z,26.88
2022-08-19T12:18:15.368Z,27.11
2022-08-19T12:20:43.850Z,26.39
2022-08-19T12:23:11.308Z,26.52
2022-08-19T12:25:44.673Z,26.17
2022-08-19T12:28:11.119Z,26.35
2022-08-19T12:30:39.044Z,27.66
2022-08-19T12:33:05.442Z,26.66
2022-08-19T12:35:31.868Z,25.89
2022-08-19T12:37:58.969Z,26.01
2022-08-19T12:40:26.612Z,26.86
2022-08-19T12:42:54.024Z,27.45
2022-08-19T12:45:20.812Z,27.61
2022-08-19T12:47:47.800Z,27.02
2022-08-19T12:50:15.979Z,26.33
2022-08-19T12:52:43.276Z,25.70
2022-08-19T12:55:11.543Z,26.58
2022-08-19T12:57:38.615Z,27.46
2022-08-19T13:00:16.309Z,27.30
2022-08-19T13:02:46.750Z,26.78
2022-08-19T13:05:20.758Z,26.38
2022-08-19T13:07:47.619Z,25.73
2022-08-19T13:10:16.743Z,25.74
2022-08-19T13:12:44.968Z,25.69
2022-08-19T13:15:12.739Z,25.19
2022-08-19T13:17:42.091Z,24.91
2022-08-19T13:20:10.339Z,25.15
2022-08-19T13:22:37.423Z,24.91
2022-08-19T13:25:06.303Z,24.96
2022-08-19T13:27:33.231Z,25.13
2022-08-19T13:30:18.792Z,24.93
2022-08-19T13:33:03.730Z,24.74
2022-08-19T13:35:30.221Z,24.75
2022-08-19T13:37:56.633Z,25.01
2022-08-19T13:40:27.066Z,24.85
2022-08-19T13:42:55.107Z,24.92
2022-08-19T13:45:25.327Z,25.09
2022-08-19T13:47:59.319Z,25.33
2022-08-19T13:50:29.757Z,25.31
2022-08-19T13:52:57.151Z,25.25
2022-08-19T13:55:25.493Z,25.54
2022-08-19T13:58:01.017Z,25.53
2022-08-19T14:00:29.473Z,24.91
2022-08-19T14:02:57.100Z,24.84
2022-08-19T14:05:25.367Z,25.36
2022-08-19T14:07:52.060Z,25.28
2022-08-19T14:10:19.885Z,25.11
2022-08-19T14:12:46.467Z,24.95
2022-08-19T14:15:13.602Z,25.20
2022-08-19T14:17:41.212Z,25.60
2022-08-19T14:20:11.362Z,25.40
2022-08-19T14:22:45.693Z,25.28
2022-08-19T14:25:19.294Z,25.12
2022-08-19T14:27:45.914Z,25.20
2022-08-19T14:30:16.370Z,24.97
2022-08-19T14:32:44.365Z,24.92
2022-08-19T14:35:13.658Z,24.58
2022-08-19T14:37:45.311Z,24.39
2022-08-19T14:40:14.421Z,24.15
2022-08-19T14:42:41.892Z,24.28
2022-08-19T14:45:09.458Z,24.32
2022-08-19T14:47:35.937Z,24.23
2022-08-19T14:50:10.531Z,24.42
2022-08-19T14:52:44.269Z,24.17
2022-08-19T14:55:10.735Z,24.18
2022-08-19T14:57:37.444Z,23.80
2022-08-19T15:00:05.228Z,23.81
2022-08-19T15:02:34.465Z,23.61
2022-08-19T15:05:02.896Z,23.54
2022-08-19T15:07:30.253Z,23.75
2022-08-19T15:09:57.455Z,23.61
2022-08-19T15:12:24.810Z,23.84
2022-08-19T15:14:53.645Z,23.83
2022-08-19T15:17:25.718Z,23.73
2022-08-19T15:20:02.959Z,23.67
2022-08-19T15:22:29.366Z,23.96
2022-08-19T15:24:55.900Z,24.06
2022-08-19T15:27:23.521Z,23.96
2022-08-19T15:29:49.965Z,23.75
2022-08-19T15:32:22.840Z,23.35
2022-08-19T15:34:49.553Z,23.03
2022-08-19T15:37:16.068Z,23.25
2022-08-19T15:39:42.516Z,23.51
2022-08-19T15:42:09.074Z,23.79
2022-08-19T15:44:35.547Z,24.01
2022-08-19T15:47:02.042Z,24.17
2022-08-19T15:49:28.455Z,24.06
2022-08-19T15:51:57.775Z,24.35
2022-08-19T15:54:24.327Z,23.80
2022-08-19T15:57:09.765Z,23.97
2022-08-19T15:59:56.028Z,23.77
2022-08-19T16:02:46.524Z,23.81
2022-08-19T16:05:34.316Z,24.02
2022-08-19T16:08:00.919Z,23.86
2022-08-19T16:10:28.206Z,23.78
2022-08-19T16:12:56.822Z,23.93
2022-08-19T16:15:24.755Z,23.35
2022-08-19T16:17:56.326Z,23.77
2022-08-19T16:20:24.607Z,23.63
2022-08-19T16:22:52.528Z,23.58
2022-08-19T16:25:18.950Z,23.32
2022-08-19T16:27:54.172Z,23.17
2022-08-19T16:30:32.366Z,23.24
2022-08-19T16:32:58.810Z,23.41
2022-08-19T16:35:25.242Z,23.33
2022-08-19T16:37:51.678Z,23.17
2022-08-19T16:40:18.183Z,23.18
2022-08-19T16:42:45.148Z,23.31
2022-08-19T16:45:11.615Z,23.31
2022-08-19T16:47:38.045Z,23.24
2022-08-19T16:50:07.444Z,23.22
2022-08-19T16:52:34.805Z,23.07
2022-08-19T16:55:01.306Z,22.95
2022-08-19T16:57:27.941Z,23.17
2022-08-19T16:59:54.428Z,23.14
2022-08-19T17:02:23.224Z,23.04
2022-08-19T17:04:57.612Z,22.88
2022-08-19T17:07:26.626Z,22.67
2022-08-19T17:09:53.238Z,22.88
2022-08-19T17:12:19.709Z,22.62
2022-08-19T17:14:46.169Z,22.34
2022-08-19T17:17:12.854Z,22.37
2022-08-19T17:19:41.852Z,22.30
2022-08-19T17:22:10.189Z,22.50
2022-08-19T17:24:38.532Z,22.45
2022-08-19T17:27:07.253Z,22.47
2022-08-19T17:29:34.181Z,22.53
2022-08-19T17:32:02.046Z,22.64
2022-08-19T17:34:28.467Z,22.78
2022-08-19T17:36:57.090Z,22.53
2022-08-19T17:39:25.279Z,22.65
2022-08-19T17:41:51.857Z,22.36
2022-08-19T17:44:18.862Z,22.39
2022-08-19T17:46:46.652Z,22.53
2022-08-19T17:49:13.187Z,22.47
2022-08-19T17:51:44.869Z,22.62
2022-08-19T17:54:15.694Z,22.25
2022-08-19T17:56:43.105Z,22.16
2022-08-19T17:59:14.076Z,22.21
2022-08-19T18:01:51.943Z,22.07
2022-08-19T18:04:20.568Z,21.93
2022-08-19T18:06:53.761Z,21.96
2022-08-19T18:09:41.820Z,21.90
2022-08-19T18:12:13.860Z,21.93
2022-08-19T18:14:41.767Z,21.84
2022-08-19T18:17:11.361Z,21.81
2022-08-19T18:19:41.183Z,21.85
2022-08-19T18:22:10.954Z,21.89
2022-08-19T18:24:40.400Z,21.77
2022-08-19T18:27:07.169Z,21.73
2022-08-19T18:29:34.178Z,21.62
2022-08-19T18:32:00.622Z,21.74
2022-08-19T18:34:27.142Z,21.63
2022-08-19T18:36:54.248Z,21.73
2022-08-19T18:39:39.370Z,21.37
2022-08-19T18:42:33.515Z,21.58
2022-08-19T18:45:18.415Z,21.62
2022-08-19T18:48:03.355Z,21.64
2022-08-19T18:50:29.787Z,21.64
2022-08-19T18:52:56.187Z,21.47
2022-08-19T18:55:23.517Z,21.58
2022-08-19T18:57:51.413Z,21.62
2022-08-19T19:00:19.937Z,21.61
2022-08-19T19:02:46.781Z,21.51
2022-08-19T19:05:14.909Z,21.61
2022-08-19T19:07:41.872Z,21.55
2022-08-19T19:10:08.764Z,21.63
2022-08-19T19:12:40.137Z,21.62
2022-08-19T19:15:06.972Z,21.62
2022-08-19T19:17:33.423Z,21.43
2022-08-19T19:19:59.927Z,21.38
2022-08-19T19:22:26.488Z,21.46
2022-08-19T19:24:54.507Z,21.46
2022-08-19T19:27:21.401Z,21.37
2022-08-19T19:29:52.289Z,21.29
2022-08-19T19:32:29.329Z,21.29
2022-08-19T19:34:55.774Z,21.39
2022-08-19T19:37:22.560Z,21.14
2022-08-19T19:39:49.144Z,21.24
2022-08-19T19:42:20.720Z,21.21
2022-08-19T19:44:50.391Z,21.27
2022-08-19T19:47:18.695Z,21.22
2022-08-19T19:52:38.333Z,21.40
2022-08-19T19:55:05.172Z,21.37
2022-08-19T19:57:31.561Z,21.32
2022-08-19T19:59:58.714Z,21.27
2022-08-19T20:02:25.275Z,21.18
2022-08-19T20:04:52.250Z,21.09
2022-08-19T20:07:38.632Z,21.13
2022-08-19T20:10:05.439Z,21.11
2022-08-19T20:12:31.843Z,21.11
2022-08-19T20:14:58.223Z,21.16
2022-08-19T20:17:24.692Z,21.04
2022-08-19T20:19:51.072Z,20.91
2022-08-19T20:22:18.323Z,20.92
2022-08-19T20:24:44.821Z,20.80
2022-08-19T20:27:11.497Z,20.79
2022-08-19T20:29:41.597Z,20.81
2022-08-19T20:32:11.133Z,20.77
2022-08-19T20:34:38.287Z,20.85
2022-08-19T20:37:05.123Z,20.80
2022-08-19T20:39:31.558Z,20.76
2022-08-19T20:41:58.204Z,20.71
2022-08-19T20:44:25.368Z,20.73
2022-08-19T20:46:55.644Z,20.70
2022-08-19T20:49:27.112Z,20.69
2022-08-19T20:51:54.691Z,20.67
2022-08-19T20:54:21.546Z,20.63
2022-08-19T20:56:47.957Z,20.64
2022-08-19T20:59:14.445Z,20.62
2022-08-19T21:01:40.854Z,20.63
2022-08-19T21:04:07.308Z,20.73
2022-08-19T21:06:34.072Z,20.62
2022-08-19T21:09:00.477Z,20.51
2022-08-19T21:11:27.039Z,20.60
2022-08-19T21:13:53.448Z,20.65
2022-08-19T21:16:19.889Z,20.56
2022-08-19T21:18:46.290Z,20.53
2022-08-19T21:21:12.689Z,20.46
2022-08-19T21:23:39.115Z,20.49
2022-08-19T21:26:05.699Z,20.48
2022-08-19T21:28:36.241Z,20.47
2022-08-19T21:31:05.241Z,20.46
2022-08-19T21:33:32.090Z,20.50
2022-08-19T21:35:59.898Z,20.50
2022-08-19T21:38:26.344Z,20.46
2022-08-19T21:40:52.855Z,20.45
2022-08-19T21:43:19.329Z,20.44
2022-08-19T21:45:47.505Z,20.44
2022-08-19T21:48:14.749Z,20.35
2022-08-19T21:50:42.209Z,20.41
2022-08-19T21:53:11.296Z,20.36
2022-08-19T21:55:40.381Z,20.33
2022-08-19T21:58:06.889Z,20.36
2022-08-19T22:00:34.776Z,20.41
2022-08-19T22:03:01.691Z,20.28
2022-08-19T22:05:28.695Z,20.34
2022-08-19T22:07:59.841Z,20.31
2022-08-19T22:10:34.027Z,20.28
2022-08-19T22:13:00.677Z,20.30
2022-08-19T22:15:29.178Z,20.35
2022-08-19T22:17:57.176Z,20.37
2022-08-19T22:20:26.932Z,20.33
2022-08-19T22:23:03.493Z,20.40
2022-08-19T22:25:40.327Z,20.40
2022-08-19T22:28:10.969Z,20.37
2022-08-19T22:30:41.711Z,20.39
2022-08-19T22:33:16.843Z,20.31
2022-08-19T22:35:45.051Z,20.21
2022-08-19T22:38:12.590Z,20.28
2022-08-19T22:40:43.114Z,20.29
2022-08-19T22:43:14.954Z,20.28
2022-08-19T22:45:42.573Z,20.24
2022-08-19T22:48:11.224Z,20.28
2022-08-19T22:50:39.347Z,20.25
2022-08-19T22:53:07.438Z,20.33
2022-08-19T22:55:35.886Z,20.31
2022-08-19T22:58:02.404Z,20.24
2022-08-19T23:00:29.542Z,20.33
2022-08-19T23:02:57.338Z,20.31
2022-08-19T23:05:27.128Z,20.20
2022-08-19T23:07:54.550Z,20.26
2022-08-19T23:10:26.605Z,20.20
2022-08-19T23:12:57.010Z,20.17
2022-08-19T23:15:26.647Z,20.25
2022-08-19T23:17:55.738Z,20.13
2022-08-19T23:20:27.161Z,20.21
2022-08-19T23:22:55.013Z,20.21
2022-08-19T23:25:24.244Z,20.25
2022-08-19T23:28:09.348Z,20.20
2022-08-19T23:30:38.944Z,20.24
2022-08-19T23:33:13.189Z,20.20
2022-08-19T23:35:41.021Z,20.28
2022-08-19T23:38:08.727Z,20.16
2022-08-19T23:40:37.037Z,20.18
2022-08-19T23:43:07.856Z,20.23
2022-08-19T23:45:51.003Z,20.15
2022-08-19T23:48:18.448Z,20.19
2022-08-19T23:50:46.104Z,20.20
2022-08-19T23:53:13.396Z,20.22
2022-08-19T23:55:42.805Z,20.20
2022-08-19T23:58:10.509Z,20.27
